MMPB/PBC METAR and TAF weather

Enter ICAO airport designator
Station Type Date Time Source
MMPB METAR 2020/09/22 15:44 UTC NOAA

MMPB 221544Z 00000KT 6SM FEW015 18/12 A3040 RMK 8/500 HZY


Station Type Date Time Source
MMPB Decoded METAR 2020/09/22 15:44 UTC NOAA

Puebla, Pue., Mexico (MMPB) 19-03N 098-10W
Sep 22, 2020 - 11:44 AM EDT / 2020.09.22 1544 UTC
Wind: Calm:0
Visibility: 6 mile(s):0
Sky conditions: mostly clear
Temperature: 64 F (18 C)
Dew Point: 53 F (12 C)
Relative Humidity: 67%
Pressure (altimeter): 30.4 in. Hg (1029 hPa)
ob: MMPB 221544Z 00000KT 6SM FEW015 18/12 A3040 RMK 8/500 HZY
cycle: 15

Station Type Date Time Source
MMPB TAF 2020/09/22 06:30 UTC NOAA

TAF MMPB 220523Z 2206/2306 28006KT P6SM VC RA SCT020CB OVC080
TEMPO 2206/2210 5SM RA VC TS
FM221000 00000KT 5SM HZ BKN015 BKN080
FM221600 16010KT P6SM SCT020
BECMG 2220/2221 BKN020CB BKN080
TEMPO 2222/2302 5SM TSRA

Example: see airport list